sensor_id;sensor_type;location;lat;lon;timestamp;temperature;humidity
16154;DHT22;8182;55.648;13.208;2022-07-21T00:00:25;19.90;99.90
16154;DHT22;8182;55.648;13.208;2022-07-21T00:02:53;19.70;99.90
16154;DHT22;8182;55.648;13.208;2022-07-21T00:05:21;19.60;99.90
16154;DHT22;8182;55.648;13.208;2022-07-21T00:07:50;19.60;99.90
16154;DHT22;8182;55.648;13.208;2022-07-21T00:10:20;19.50;99.90
16154;DHT22;8182;55.648;13.208;2022-07-21T00:12:48;19.50;99.90
16154;DHT22;8182;55.648;13.208;2022-07-21T00:15:16;19.50;99.90
16154;DHT22;8182;55.648;13.208;2022-07-21T00:17:43;19.50;99.90
16154;DHT22;8182;55.648;13.208;2022-07-21T00:20:13;19.50;99.90
16154;DHT22;8182;55.648;13.208;2022-07-21T00:22:40;19.50;99.90
16154;DHT22;8182;55.648;13.208;2022-07-21T00:25:08;19.60;99.90
16154;DHT22;8182;55.648;13.208;2022-07-21T00:27:37;19.50;99.90
16154;DHT22;8182;55.648;13.208;2022-07-21T00:30:05;19.60;99.90
16154;DHT22;8182;55.648;13.208;2022-07-21T00:32:33;19.50;99.90
16154;DHT22;8182;55.648;13.208;2022-07-21T00:35:00;19.60;99.90
16154;DHT22;8182;55.648;13.208;2022-07-21T00:37:27;19.40;99.90
16154;DHT22;8182;55.648;13.208;2022-07-21T00:39:55;19.40;99.90
16154;DHT22;8182;55.648;13.208;2022-07-21T00:42:22;19.40;99.90
16154;DHT22;8182;55.648;13.208;2022-07-21T00:44:51;19.30;99.90
16154;DHT22;8182;55.648;13.208;2022-07-21T00:47:19;19.30;99.90
16154;DHT22;8182;55.648;13.208;2022-07-21T00:49:47;19.40;99.90
16154;DHT22;8182;55.648;13.208;2022-07-21T00:52:14;19.20;99.90
16154;DHT22;8182;55.648;13.208;2022-07-21T00:54:42;19.10;99.90
16154;DHT22;8182;55.648;13.208;2022-07-21T00:57:10;19.20;99.90
16154;DHT22;8182;55.648;13.208;2022-07-21T00:59:38;19.20;99.90
16154;DHT22;8182;55.648;13.208;2022-07-21T01:02:07;19.20;99.90
16154;DHT22;8182;55.648;13.208;2022-07-21T01:04:35;19.20;99.90
16154;DHT22;8182;55.648;13.208;2022-07-21T01:07:03;19.20;99.90
16154;DHT22;8182;55.648;13.208;2022-07-21T01:09:32;18.90;99.90
16154;DHT22;8182;55.648;13.208;2022-07-21T01:12:00;18.80;99.90
16154;DHT22;8182;55.648;13.208;2022-07-21T01:14:27;18.90;99.90
16154;DHT22;8182;55.648;13.208;2022-07-21T01:16:54;18.90;99.90
16154;DHT22;8182;55.648;13.208;2022-07-21T01:19:23;18.90;99.90
16154;DHT22;8182;55.648;13.208;2022-07-21T01:21:51;18.90;99.90
16154;DHT22;8182;55.648;13.208;2022-07-21T01:24:19;19.00;99.90
16154;DHT22;8182;55.648;13.208;2022-07-21T01:26:48;19.00;99.90
16154;DHT22;8182;55.648;13.208;2022-07-21T01:29:16;19.00;99.90
16154;DHT22;8182;55.648;13.208;2022-07-21T01:31:45;18.90;99.90
16154;DHT22;8182;55.648;13.208;2022-07-21T01:34:13;18.90;99.90
16154;DHT22;8182;55.648;13.208;2022-07-21T01:36:40;18.80;99.90
16154;DHT22;8182;55.648;13.208;2022-07-21T01:39:09;18.90;99.90
16154;DHT22;8182;55.648;13.208;2022-07-21T01:41:54;18.80;99.90
16154;DHT22;8182;55.648;13.208;2022-07-21T01:44:21;18.70;99.90
16154;DHT22;8182;55.648;13.208;2022-07-21T01:46:51;18.70;99.90
16154;DHT22;8182;55.648;13.208;2022-07-21T01:49:20;18.70;99.90
16154;DHT22;8182;55.648;13.208;2022-07-21T01:51:48;18.90;99.90
16154;DHT22;8182;55.648;13.208;2022-07-21T01:54:17;18.90;99.90
16154;DHT22;8182;55.648;13.208;2022-07-21T01:56:44;18.80;99.90
16154;DHT22;8182;55.648;13.208;2022-07-21T01:59:11;18.80;99.90
16154;DHT22;8182;55.648;13.208;2022-07-21T02:01:38;18.90;99.90
16154;DHT22;8182;55.648;13.208;2022-07-21T02:04:05;19.10;99.90
16154;DHT22;8182;55.648;13.208;2022-07-21T02:06:35;19.20;99.90
16154;DHT22;8182;55.648;13.208;2022-07-21T02:09:02;19.20;99.90
16154;DHT22;8182;55.648;13.208;2022-07-21T02:11:30;19.40;99.90
16154;DHT22;8182;55.648;13.208;2022-07-21T02:14:06;19.50;99.90
16154;DHT22;8182;55.648;13.208;2022-07-21T02:16:33;19.50;99.90
16154;DHT22;8182;55.648;13.208;2022-07-21T02:19:01;19.40;99.90
16154;DHT22;8182;55.648;13.208;2022-07-21T02:21:28;19.50;99.90
16154;DHT22;8182;55.648;13.208;2022-07-21T02:23:55;19.50;99.90
16154;DHT22;8182;55.648;13.208;2022-07-21T02:26:22;19.60;99.90
16154;DHT22;8182;55.648;13.208;2022-07-21T02:28:51;19.60;99.90
16154;DHT22;8182;55.648;13.208;2022-07-21T02:31:17;19.50;99.90
16154;DHT22;8182;55.648;13.208;2022-07-21T02:33:44;19.60;99.90
16154;DHT22;8182;55.648;13.208;2022-07-21T02:36:11;19.70;99.90
16154;DHT22;8182;55.648;13.208;2022-07-21T02:38:39;19.70;99.90
16154;DHT22;8182;55.648;13.208;2022-07-21T02:41:06;19.70;99.90
16154;DHT22;8182;55.648;13.208;2022-07-21T02:43:33;19.60;99.90
16154;DHT22;8182;55.648;13.208;2022-07-21T02:46:02;19.50;99.90
16154;DHT22;8182;55.648;13.208;2022-07-21T02:48:29;19.50;99.90
16154;DHT22;8182;55.648;13.208;2022-07-21T02:50:56;19.50;99.90
16154;DHT22;8182;55.648;13.208;2022-07-21T02:53:23;19.50;99.90
16154;DHT22;8182;55.648;13.208;2022-07-21T02:55:51;19.50;99.90
16154;DHT22;8182;55.648;13.208;2022-07-21T02:58:20;19.50;99.90
16154;DHT22;8182;55.648;13.208;2022-07-21T03:00:49;19.60;99.90
16154;DHT22;8182;55.648;13.208;2022-07-21T03:03:19;19.50;99.90
16154;DHT22;8182;55.648;13.208;2022-07-21T03:05:47;19.60;99.90
16154;DHT22;8182;55.648;13.208;2022-07-21T03:08:15;19.70;99.90
16154;DHT22;8182;55.648;13.208;2022-07-21T03:10:43;19.80;99.90
16154;DHT22;8182;55.648;13.208;2022-07-21T03:13:10;19.80;99.90
16154;DHT22;8182;55.648;13.208;2022-07-21T03:15:38;19.80;99.90
16154;DHT22;8182;55.648;13.208;2022-07-21T03:18:06;19.60;99.90
16154;DHT22;8182;55.648;13.208;2022-07-21T03:20:36;19.60;99.90
16154;DHT22;8182;55.648;13.208;2022-07-21T03:23:04;19.60;99.90
16154;DHT22;8182;55.648;13.208;2022-07-21T03:25:31;19.70;99.90
16154;DHT22;8182;55.648;13.208;2022-07-21T03:27:59;19.70;99.90
16154;DHT22;8182;55.648;13.208;2022-07-21T03:30:26;19.70;99.90
16154;DHT22;8182;55.648;13.208;2022-07-21T03:32:55;19.60;99.90
16154;DHT22;8182;55.648;13.208;2022-07-21T03:35:22;19.80;99.90
16154;DHT22;8182;55.648;13.208;2022-07-21T03:37:53;19.80;99.90
16154;DHT22;8182;55.648;13.208;2022-07-21T03:40:24;19.80;99.90
16154;DHT22;8182;55.648;13.208;2022-07-21T03:42:53;19.80;99.90
16154;DHT22;8182;55.648;13.208;2022-07-21T03:45:21;19.80;99.90
16154;DHT22;8182;55.648;13.208;2022-07-21T03:47:48;19.80;99.90
16154;DHT22;8182;55.648;13.208;2022-07-21T03:50:15;19.90;99.90
16154;DHT22;8182;55.648;13.208;2022-07-21T03:52:43;19.80;99.90
16154;DHT22;8182;55.648;13.208;2022-07-21T03:55:13;19.90;99.90
16154;DHT22;8182;55.648;13.208;2022-07-21T03:57:46;20.00;99.90
16154;DHT22;8182;55.648;13.208;2022-07-21T04:00:16;20.00;99.90
16154;DHT22;8182;55.648;13.208;2022-07-21T04:02:44;20.20;99.90
16154;DHT22;8182;55.648;13.208;2022-07-21T04:05:13;20.10;99.90
16154;DHT22;8182;55.648;13.208;2022-07-21T04:07:48;20.10;99.90
16154;DHT22;8182;55.648;13.208;2022-07-21T04:10:20;20.20;99.90
16154;DHT22;8182;55.648;13.208;2022-07-21T04:12:49;20.30;99.90
16154;DHT22;8182;55.648;13.208;2022-07-21T04:15:17;20.30;99.90
16154;DHT22;8182;55.648;13.208;2022-07-21T04:17:44;20.30;99.90
16154;DHT22;8182;55.648;13.208;2022-07-21T04:20:13;20.40;99.90
16154;DHT22;8182;55.648;13.208;2022-07-21T04:22:41;20.50;99.90
16154;DHT22;8182;55.648;13.208;2022-07-21T04:25:08;20.70;99.90
16154;DHT22;8182;55.648;13.208;2022-07-21T04:27:37;20.70;99.90
16154;DHT22;8182;55.648;13.208;2022-07-21T04:30:07;20.80;99.90
16154;DHT22;8182;55.648;13.208;2022-07-21T04:32:34;20.90;99.90
16154;DHT22;8182;55.648;13.208;2022-07-21T04:35:02;21.00;99.90
16154;DHT22;8182;55.648;13.208;2022-07-21T04:37:29;21.10;99.90
16154;DHT22;8182;55.648;13.208;2022-07-21T04:39:56;21.20;99.90
16154;DHT22;8182;55.648;13.208;2022-07-21T04:42:24;21.30;99.90
16154;DHT22;8182;55.648;13.208;2022-07-21T04:44:53;21.40;99.90
16154;DHT22;8182;55.648;13.208;2022-07-21T04:47:20;21.50;99.90
16154;DHT22;8182;55.648;13.208;2022-07-21T04:49:48;21.60;99.90
16154;DHT22;8182;55.648;13.208;2022-07-21T04:52:15;21.70;99.90
16154;DHT22;8182;55.648;13.208;2022-07-21T04:54:42;21.70;99.90
16154;DHT22;8182;55.648;13.208;2022-07-21T04:57:09;21.80;99.90
16154;DHT22;8182;55.648;13.208;2022-07-21T04:59:36;21.80;99.90
16154;DHT22;8182;55.648;13.208;2022-07-21T05:02:06;21.90;99.90
16154;DHT22;8182;55.648;13.208;2022-07-21T05:04:34;22.10;99.90
16154;DHT22;8182;55.648;13.208;2022-07-21T05:07:01;22.20;99.90
16154;DHT22;8182;55.648;13.208;2022-07-21T05:09:28;22.30;99.90
16154;DHT22;8182;55.648;13.208;2022-07-21T05:11:55;22.40;99.90
16154;DHT22;8182;55.648;13.208;2022-07-21T05:14:22;22.60;99.90
16154;DHT22;8182;55.648;13.208;2022-07-21T05:16:49;22.70;99.90
16154;DHT22;8182;55.648;13.208;2022-07-21T05:19:19;22.90;99.90
16154;DHT22;8182;55.648;13.208;2022-07-21T05:21:46;23.30;99.90
16154;DHT22;8182;55.648;13.208;2022-07-21T05:24:13;24.70;99.90
16154;DHT22;8182;55.648;13.208;2022-07-21T05:26:40;25.90;99.90
16154;DHT22;8182;55.648;13.208;2022-07-21T05:29:07;25.60;99.90
16154;DHT22;8182;55.648;13.208;2022-07-21T05:31:37;25.10;99.90
16154;DHT22;8182;55.648;13.208;2022-07-21T05:34:04;24.60;99.90
16154;DHT22;8182;55.648;13.208;2022-07-21T05:36:33;25.50;99.90
16154;DHT22;8182;55.648;13.208;2022-07-21T05:39:00;25.80;99.90
16154;DHT22;8182;55.648;13.208;2022-07-21T05:41:27;27.40;99.90
16154;DHT22;8182;55.648;13.208;2022-07-21T05:43:54;28.80;99.90
16154;DHT22;8182;55.648;13.208;2022-07-21T05:46:22;29.80;99.90
16154;DHT22;8182;55.648;13.208;2022-07-21T05:48:49;30.20;99.90
16154;DHT22;8182;55.648;13.208;2022-07-21T05:51:16;30.60;99.90
16154;DHT22;8182;55.648;13.208;2022-07-21T05:53:44;31.50;99.90
16154;DHT22;8182;55.648;13.208;2022-07-21T05:56:12;31.00;99.90
16154;DHT22;8182;55.648;13.208;2022-07-21T05:58:40;31.30;99.90
16154;DHT22;8182;55.648;13.208;2022-07-21T06:01:07;31.10;99.90
16154;DHT22;8182;55.648;13.208;2022-07-21T06:03:35;31.30;99.90
16154;DHT22;8182;55.648;13.208;2022-07-21T06:06:02;31.00;99.90
16154;DHT22;8182;55.648;13.208;2022-07-21T06:08:29;31.00;99.90
16154;DHT22;8182;55.648;13.208;2022-07-21T06:10:58;31.30;99.90
16154;DHT22;8182;55.648;13.208;2022-07-21T06:13:25;31.20;99.90
16154;DHT22;8182;55.648;13.208;2022-07-21T06:15:52;31.40;99.90
16154;DHT22;8182;55.648;13.208;2022-07-21T06:18:20;31.90;99.90
16154;DHT22;8182;55.648;13.208;2022-07-21T06:20:47;32.40;99.90
16154;DHT22;8182;55.648;13.208;2022-07-21T06:23:14;31.80;99.90
16154;DHT22;8182;55.648;13.208;2022-07-21T06:25:44;31.60;99.90
16154;DHT22;8182;55.648;13.208;2022-07-21T06:28:13;32.40;99.90
16154;DHT22;8182;55.648;13.208;2022-07-21T06:30:40;30.80;99.90
16154;DHT22;8182;55.648;13.208;2022-07-21T06:33:08;29.10;99.90
16154;DHT22;8182;55.648;13.208;2022-07-21T06:35:35;28.60;99.90
16154;DHT22;8182;55.648;13.208;2022-07-21T06:38:03;28.10;99.90
16154;DHT22;8182;55.648;13.208;2022-07-21T06:40:30;27.80;99.90
16154;DHT22;8182;55.648;13.208;2022-07-21T06:42:57;27.60;99.90
16154;DHT22;8182;55.648;13.208;2022-07-21T06:45:26;27.80;99.90
16154;DHT22;8182;55.648;13.208;2022-07-21T06:48:00;27.80;99.90
16154;DHT22;8182;55.648;13.208;2022-07-21T06:50:28;27.90;99.90
16154;DHT22;8182;55.648;13.208;2022-07-21T06:52:55;28.30;99.90
16154;DHT22;8182;55.648;13.208;2022-07-21T06:55:22;28.40;99.90
16154;DHT22;8182;55.648;13.208;2022-07-21T06:57:49;28.70;99.90
16154;DHT22;8182;55.648;13.208;2022-07-21T07:00:17;29.70;99.90
16154;DHT22;8182;55.648;13.208;2022-07-21T07:02:48;31.70;99.90
16154;DHT22;8182;55.648;13.208;2022-07-21T07:05:15;33.00;99.90
16154;DHT22;8182;55.648;13.208;2022-07-21T07:07:42;33.90;99.90
16154;DHT22;8182;55.648;13.208;2022-07-21T07:10:10;35.00;99.90
16154;DHT22;8182;55.648;13.208;2022-07-21T07:12:38;34.80;99.90
16154;DHT22;8182;55.648;13.208;2022-07-21T07:15:06;33.90;99.20
16154;DHT22;8182;55.648;13.208;2022-07-21T07:17:34;33.60;99.00
16154;DHT22;8182;55.648;13.208;2022-07-21T07:20:03;32.80;99.90
16154;DHT22;8182;55.648;13.208;2022-07-21T07:22:32;32.60;99.90
16154;DHT22;8182;55.648;13.208;2022-07-21T07:24:59;31.90;99.90
16154;DHT22;8182;55.648;13.208;2022-07-21T07:27:27;31.40;99.90
16154;DHT22;8182;55.648;13.208;2022-07-21T07:29:54;30.50;99.90
16154;DHT22;8182;55.648;13.208;2022-07-21T07:32:22;29.80;99.90
16154;DHT22;8182;55.648;13.208;2022-07-21T07:34:48;29.20;99.90
16154;DHT22;8182;55.648;13.208;2022-07-21T07:37:17;29.00;99.90
16154;DHT22;8182;55.648;13.208;2022-07-21T07:39:45;29.20;99.90
16154;DHT22;8182;55.648;13.208;2022-07-21T07:42:12;29.30;99.90
16154;DHT22;8182;55.648;13.208;2022-07-21T07:44:39;29.50;99.90
16154;DHT22;8182;55.648;13.208;2022-07-21T07:47:06;30.00;99.90
16154;DHT22;8182;55.648;13.208;2022-07-21T07:49:34;30.40;99.90
16154;DHT22;8182;55.648;13.208;2022-07-21T07:52:00;31.00;99.90
16154;DHT22;8182;55.648;13.208;2022-07-21T07:54:31;30.90;99.90
16154;DHT22;8182;55.648;13.208;2022-07-21T07:56:58;31.50;99.90
16154;DHT22;8182;55.648;13.208;2022-07-21T07:59:25;31.90;99.90
16154;DHT22;8182;55.648;13.208;2022-07-21T08:01:52;32.20;99.90
16154;DHT22;8182;55.648;13.208;2022-07-21T08:04:19;32.60;99.40
16154;DHT22;8182;55.648;13.208;2022-07-21T08:06:46;33.60;99.90
16154;DHT22;8182;55.648;13.208;2022-07-21T08:09:13;34.30;98.70
16154;DHT22;8182;55.648;13.208;2022-07-21T08:11:42;35.10;99.10
16154;DHT22;8182;55.648;13.208;2022-07-21T08:14:12;34.80;98.00
16154;DHT22;8182;55.648;13.208;2022-07-21T08:16:39;34.90;97.40
16154;DHT22;8182;55.648;13.208;2022-07-21T08:19:06;34.80;97.60
16154;DHT22;8182;55.648;13.208;2022-07-21T08:21:34;34.40;97.60
16154;DHT22;8182;55.648;13.208;2022-07-21T08:24:02;35.00;97.50
16154;DHT22;8182;55.648;13.208;2022-07-21T08:26:32;35.30;97.50
16154;DHT22;8182;55.648;13.208;2022-07-21T08:29:02;36.60;96.80
16154;DHT22;8182;55.648;13.208;2022-07-21T08:31:30;36.40;96.20
16154;DHT22;8182;55.648;13.208;2022-07-21T08:33:57;37.00;95.70
16154;DHT22;8182;55.648;13.208;2022-07-21T08:36:24;37.70;94.40
16154;DHT22;8182;55.648;13.208;2022-07-21T08:38:51;37.20;94.90
16154;DHT22;8182;55.648;13.208;2022-07-21T08:41:18;37.60;94.70
16154;DHT22;8182;55.648;13.208;2022-07-21T08:43:45;39.70;93.80
16154;DHT22;8182;55.648;13.208;2022-07-21T08:46:15;39.60;93.80
16154;DHT22;8182;55.648;13.208;2022-07-21T08:48:42;40.40;92.40
16154;DHT22;8182;55.648;13.208;2022-07-21T08:51:09;40.50;92.50
16154;DHT22;8182;55.648;13.208;2022-07-21T08:53:37;39.70;92.10
16154;DHT22;8182;55.648;13.208;2022-07-21T08:56:05;39.70;92.00
16154;DHT22;8182;55.648;13.208;2022-07-21T08:58:32;40.50;91.10
16154;DHT22;8182;55.648;13.208;2022-07-21T09:01:01;39.00;91.80
16154;DHT22;8182;55.648;13.208;2022-07-21T09:03:30;38.50;92.80
16154;DHT22;8182;55.648;13.208;2022-07-21T09:06:05;36.60;92.90
16154;DHT22;8182;55.648;13.208;2022-07-21T09:08:35;35.10;93.10
16154;DHT22;8182;55.648;13.208;2022-07-21T09:11:14;35.10;93.90
16154;DHT22;8182;55.648;13.208;2022-07-21T09:13:43;34.90;94.10
16154;DHT22;8182;55.648;13.208;2022-07-21T09:16:10;34.00;95.00
16154;DHT22;8182;55.648;13.208;2022-07-21T09:18:48;34.80;94.80
16154;DHT22;8182;55.648;13.208;2022-07-21T09:21:17;37.20;93.80
16154;DHT22;8182;55.648;13.208;2022-07-21T09:23:45;39.10;92.40
16154;DHT22;8182;55.648;13.208;2022-07-21T09:26:12;40.10;91.10
16154;DHT22;8182;55.648;13.208;2022-07-21T09:28:40;40.00;92.00
16154;DHT22;8182;55.648;13.208;2022-07-21T09:31:10;40.90;90.40
16154;DHT22;8182;55.648;13.208;2022-07-21T09:33:40;40.20;91.40
16154;DHT22;8182;55.648;13.208;2022-07-21T09:36:10;41.10;90.80
16154;DHT22;8182;55.648;13.208;2022-07-21T09:38:39;39.40;90.00
16154;DHT22;8182;55.648;13.208;2022-07-21T09:41:09;38.60;90.70
16154;DHT22;8182;55.648;13.208;2022-07-21T09:43:39;38.60;91.10
16154;DHT22;8182;55.648;13.208;2022-07-21T09:46:14;40.60;89.40
16154;DHT22;8182;55.648;13.208;2022-07-21T09:48:43;40.80;90.10
16154;DHT22;8182;55.648;13.208;2022-07-21T09:51:30;40.90;88.90
16154;DHT22;8182;55.648;13.208;2022-07-21T09:53:59;40.10;88.80
16154;DHT22;8182;55.648;13.208;2022-07-21T09:56:28;41.10;87.00
16154;DHT22;8182;55.648;13.208;2022-07-21T09:58:57;40.10;88.30
16154;DHT22;8182;55.648;13.208;2022-07-21T10:01:26;40.30;87.30
16154;DHT22;8182;55.648;13.208;2022-07-21T10:03:54;39.70;88.80
16154;DHT22;8182;55.648;13.208;2022-07-21T10:06:24;40.70;88.40
16154;DHT22;8182;55.648;13.208;2022-07-21T10:08:53;40.90;88.70
16154;DHT22;8182;55.648;13.208;2022-07-21T10:11:20;41.20;88.50
16154;DHT22;8182;55.648;13.208;2022-07-21T10:13:49;40.50;88.10
16154;DHT22;8182;55.648;13.208;2022-07-21T10:16:17;40.80;89.00
16154;DHT22;8182;55.648;13.208;2022-07-21T10:18:53;41.00;87.80
16154;DHT22;8182;55.648;13.208;2022-07-21T10:21:29;40.50;87.90
16154;DHT22;8182;55.648;13.208;2022-07-21T10:24:02;40.30;87.50
16154;DHT22;8182;55.648;13.208;2022-07-21T10:26:30;41.30;86.20
16154;DHT22;8182;55.648;13.208;2022-07-21T10:28:57;41.10;87.30
16154;DHT22;8182;55.648;13.208;2022-07-21T10:31:25;40.50;88.20
16154;DHT22;8182;55.648;13.208;2022-07-21T10:33:59;40.80;88.40
16154;DHT22;8182;55.648;13.208;2022-07-21T10:36:46;40.60;88.20
16154;DHT22;8182;55.648;13.208;2022-07-21T10:39:23;39.90;86.70
16154;DHT22;8182;55.648;13.208;2022-07-21T10:41:52;39.30;89.10
16154;DHT22;8182;55.648;13.208;2022-07-21T10:44:42;39.30;87.80
16154;DHT22;8182;55.648;13.208;2022-07-21T10:47:11;38.50;89.50
16154;DHT22;8182;55.648;13.208;2022-07-21T10:49:49;38.50;89.40
16154;DHT22;8182;55.648;13.208;2022-07-21T10:52:57;39.10;88.80
16154;DHT22;8182;55.648;13.208;2022-07-21T10:55:27;39.80;86.50
16154;DHT22;8182;55.648;13.208;2022-07-21T10:58:15;39.70;86.70
16154;DHT22;8182;55.648;13.208;2022-07-21T11:00:49;38.60;88.90
16154;DHT22;8182;55.648;13.208;2022-07-21T11:03:24;39.20;87.50
16154;DHT22;8182;55.648;13.208;2022-07-21T11:06:18;38.40;87.60
16154;DHT22;8182;55.648;13.208;2022-07-21T11:08:50;36.60;90.30
16154;DHT22;8182;55.648;13.208;2022-07-21T11:11:20;36.80;89.90
16154;DHT22;8182;55.648;13.208;2022-07-21T11:14:06;36.30;90.10
16154;DHT22;8182;55.648;13.208;2022-07-21T11:19:31;37.70;89.20
16154;DHT22;8182;55.648;13.208;2022-07-21T11:22:01;37.20;90.00
16154;DHT22;8182;55.648;13.208;2022-07-21T11:24:29;36.50;89.70
16154;DHT22;8182;55.648;13.208;2022-07-21T11:27:00;36.90;90.60
16154;DHT22;8182;55.648;13.208;2022-07-21T11:29:28;35.70;90.60
16154;DHT22;8182;55.648;13.208;2022-07-21T11:31:56;34.70;91.30
16154;DHT22;8182;55.648;13.208;2022-07-21T11:34:25;34.50;91.50
16154;DHT22;8182;55.648;13.208;2022-07-21T11:36:59;34.60;90.80
16154;DHT22;8182;55.648;13.208;2022-07-21T11:39:27;34.30;89.70
16154;DHT22;8182;55.648;13.208;2022-07-21T11:42:03;34.40;87.80
16154;DHT22;8182;55.648;13.208;2022-07-21T11:44:30;34.10;87.10
16154;DHT22;8182;55.648;13.208;2022-07-21T11:46:59;33.50;87.80
16154;DHT22;8182;55.648;13.208;2022-07-21T11:49:33;33.50;88.30
16154;DHT22;8182;55.648;13.208;2022-07-21T11:52:03;33.10;90.60
16154;DHT22;8182;55.648;13.208;2022-07-21T11:54:34;33.10;90.20
16154;DHT22;8182;55.648;13.208;2022-07-21T11:57:04;32.60;89.90
16154;DHT22;8182;55.648;13.208;2022-07-21T11:59:32;32.40;90.80
16154;DHT22;8182;55.648;13.208;2022-07-21T12:02:02;32.50;91.00
16154;DHT22;8182;55.648;13.208;2022-07-21T12:04:37;32.00;91.20
16154;DHT22;8182;55.648;13.208;2022-07-21T12:07:07;31.70;92.20
16154;DHT22;8182;55.648;13.208;2022-07-21T12:09:37;32.00;92.20
16154;DHT22;8182;55.648;13.208;2022-07-21T12:12:07;31.50;93.10
16154;DHT22;8182;55.648;13.208;2022-07-21T12:14:45;31.30;92.40
16154;DHT22;8182;55.648;13.208;2022-07-21T12:17:13;30.90;92.90
16154;DHT22;8182;55.648;13.208;2022-07-21T12:19:42;31.10;92.90
16154;DHT22;8182;55.648;13.208;2022-07-21T12:22:09;30.60;93.70
16154;DHT22;8182;55.648;13.208;2022-07-21T12:24:54;31.10;94.00
16154;DHT22;8182;55.648;13.208;2022-07-21T12:27:23;30.20;94.70
16154;DHT22;8182;55.648;13.208;2022-07-21T12:29:50;30.30;95.40
16154;DHT22;8182;55.648;13.208;2022-07-21T12:32:44;29.90;96.80
16154;DHT22;8182;55.648;13.208;2022-07-21T12:35:19;30.60;96.60
16154;DHT22;8182;55.648;13.208;2022-07-21T12:38:01;30.30;97.10
16154;DHT22;8182;55.648;13.208;2022-07-21T12:40:29;30.60;97.50
16154;DHT22;8182;55.648;13.208;2022-07-21T12:43:13;30.50;97.80
16154;DHT22;8182;55.648;13.208;2022-07-21T12:46:00;30.10;98.40
16154;DHT22;8182;55.648;13.208;2022-07-21T12:48:29;29.90;99.30
16154;DHT22;8182;55.648;13.208;2022-07-21T12:50:58;30.00;99.90
16154;DHT22;8182;55.648;13.208;2022-07-21T12:53:26;29.70;99.90
16154;DHT22;8182;55.648;13.208;2022-07-21T12:55:54;30.10;99.90
16154;DHT22;8182;55.648;13.208;2022-07-21T12:58:22;30.00;99.90
16154;DHT22;8182;55.648;13.208;2022-07-21T13:00:50;29.60;99.90
16154;DHT22;8182;55.648;13.208;2022-07-21T13:03:17;29.20;99.90
16154;DHT22;8182;55.648;13.208;2022-07-21T13:05:44;28.80;99.90
16154;DHT22;8182;55.648;13.208;2022-07-21T13:08:11;28.70;99.90
16154;DHT22;8182;55.648;13.208;2022-07-21T13:10:38;28.40;99.90
16154;DHT22;8182;55.648;13.208;2022-07-21T13:13:05;28.30;99.90
16154;DHT22;8182;55.648;13.208;2022-07-21T13:15:33;28.40;99.90
16154;DHT22;8182;55.648;13.208;2022-07-21T13:18:00;28.80;99.90
16154;DHT22;8182;55.648;13.208;2022-07-21T13:20:27;28.30;99.90
16154;DHT22;8182;55.648;13.208;2022-07-21T13:22:54;28.60;99.90
16154;DHT22;8182;55.648;13.208;2022-07-21T13:25:21;28.80;99.90
16154;DHT22;8182;55.648;13.208;2022-07-21T13:27:48;28.70;99.90
16154;DHT22;8182;55.648;13.208;2022-07-21T13:30:16;28.30;99.90
16154;DHT22;8182;55.648;13.208;2022-07-21T13:32:45;28.50;99.90
16154;DHT22;8182;55.648;13.208;2022-07-21T13:35:12;28.50;99.90
16154;DHT22;8182;55.648;13.208;2022-07-21T13:37:40;28.50;99.90
16154;DHT22;8182;55.648;13.208;2022-07-21T13:40:08;28.10;99.90
16154;DHT22;8182;55.648;13.208;2022-07-21T13:42:35;27.90;99.90
16154;DHT22;8182;55.648;13.208;2022-07-21T13:45:02;27.50;99.90
16154;DHT22;8182;55.648;13.208;2022-07-21T13:47:29;27.60;99.90
16154;DHT22;8182;55.648;13.208;2022-07-21T13:49:58;27.60;99.90
16154;DHT22;8182;55.648;13.208;2022-07-21T13:52:25;27.70;99.90
16154;DHT22;8182;55.648;13.208;2022-07-21T13:54:52;27.40;99.90
16154;DHT22;8182;55.648;13.208;2022-07-21T13:57:19;27.50;99.90
16154;DHT22;8182;55.648;13.208;2022-07-21T13:59:46;27.30;99.90
16154;DHT22;8182;55.648;13.208;2022-07-21T14:02:13;27.20;99.90
16154;DHT22;8182;55.648;13.208;2022-07-21T14:04:40;27.00;99.90
16154;DHT22;8182;55.648;13.208;2022-07-21T14:07:08;26.80;99.90
16154;DHT22;8182;55.648;13.208;2022-07-21T14:09:36;26.50;99.90
16154;DHT22;8182;55.648;13.208;2022-07-21T14:12:03;26.60;99.90
16154;DHT22;8182;55.648;13.208;2022-07-21T14:14:30;26.40;99.90
16154;DHT22;8182;55.648;13.208;2022-07-21T14:16:58;26.30;99.90
16154;DHT22;8182;55.648;13.208;2022-07-21T14:19:26;26.50;99.90
16154;DHT22;8182;55.648;13.208;2022-07-21T14:21:53;26.60;99.90
16154;DHT22;8182;55.648;13.208;2022-07-21T14:24:21;26.50;99.90
16154;DHT22;8182;55.648;13.208;2022-07-21T14:27:06;26.60;99.90
16154;DHT22;8182;55.648;13.208;2022-07-21T14:29:33;26.90;99.90
16154;DHT22;8182;55.648;13.208;2022-07-21T14:32:00;27.00;99.90
16154;DHT22;8182;55.648;13.208;2022-07-21T14:34:27;26.80;99.90
16154;DHT22;8182;55.648;13.208;2022-07-21T14:36:54;26.60;99.90
16154;DHT22;8182;55.648;13.208;2022-07-21T14:39:22;26.70;99.90
16154;DHT22;8182;55.648;13.208;2022-07-21T14:41:49;27.10;99.90
16154;DHT22;8182;55.648;13.208;2022-07-21T14:44:16;26.90;99.90
16154;DHT22;8182;55.648;13.208;2022-07-21T14:46:43;27.10;99.90
16154;DHT22;8182;55.648;13.208;2022-07-21T14:49:10;27.40;99.90
16154;DHT22;8182;55.648;13.208;2022-07-21T14:51:37;27.60;99.90
16154;DHT22;8182;55.648;13.208;2022-07-21T14:54:04;27.80;99.90
16154;DHT22;8182;55.648;13.208;2022-07-21T14:56:33;28.00;99.90
16154;DHT22;8182;55.648;13.208;2022-07-21T14:59:00;27.90;99.90
16154;DHT22;8182;55.648;13.208;2022-07-21T15:01:27;27.80;99.90
16154;DHT22;8182;55.648;13.208;2022-07-21T15:03:54;27.60;99.90
16154;DHT22;8182;55.648;13.208;2022-07-21T15:06:21;27.50;99.90
16154;DHT22;8182;55.648;13.208;2022-07-21T15:08:48;27.30;99.90
16154;DHT22;8182;55.648;13.208;2022-07-21T15:11:15;27.30;99.90
16154;DHT22;8182;55.648;13.208;2022-07-21T15:13:44;27.30;99.90
16154;DHT22;8182;55.648;13.208;2022-07-21T15:16:11;27.30;99.90
16154;DHT22;8182;55.648;13.208;2022-07-21T15:18:38;27.30;99.90
16154;DHT22;8182;55.648;13.208;2022-07-21T15:21:05;27.20;99.90
16154;DHT22;8182;55.648;13.208;2022-07-21T15:23:33;27.20;99.90
16154;DHT22;8182;55.648;13.208;2022-07-21T15:25:59;27.30;99.90
16154;DHT22;8182;55.648;13.208;2022-07-21T15:28:27;27.40;99.90
16154;DHT22;8182;55.648;13.208;2022-07-21T15:30:55;27.50;99.90
16154;DHT22;8182;55.648;13.208;2022-07-21T15:33:22;27.40;99.90
16154;DHT22;8182;55.648;13.208;2022-07-21T15:35:49;27.40;99.90
16154;DHT22;8182;55.648;13.208;2022-07-21T15:38:19;27.60;99.90
16154;DHT22;8182;55.648;13.208;2022-07-21T15:40:46;27.60;99.90
16154;DHT22;8182;55.648;13.208;2022-07-21T15:43:14;27.70;99.90